sensor_id;sensor_type;location;lat;lon;timestamp;temperature;humidity
7564;DHT22;3823;53.586;10.040;2024-03-08T00:00:41;2.90;1.00
7564;DHT22;3823;53.586;10.040;2024-03-08T00:03:08;2.90;1.00
7564;DHT22;3823;53.586;10.040;2024-03-08T00:05:38;2.80;1.00
7564;DHT22;3823;53.586;10.040;2024-03-08T00:08:05;2.80;1.00
7564;DHT22;3823;53.586;10.040;2024-03-08T00:10:31;2.70;1.00
7564;DHT22;3823;53.586;10.040;2024-03-08T00:12:57;2.70;1.00
7564;DHT22;3823;53.586;10.040;2024-03-08T00:15:23;2.70;1.00
7564;DHT22;3823;53.586;10.040;2024-03-08T00:17:49;2.70;1.00
7564;DHT22;3823;53.586;10.040;2024-03-08T00:20:15;2.70;1.00
7564;DHT22;3823;53.586;10.040;2024-03-08T00:22:43;2.70;1.00
7564;DHT22;3823;53.586;10.040;2024-03-08T00:25:09;2.70;1.00
7564;DHT22;3823;53.586;10.040;2024-03-08T00:27:35;2.70;1.00
7564;DHT22;3823;53.586;10.040;2024-03-08T00:30:01;2.70;1.00
7564;DHT22;3823;53.586;10.040;2024-03-08T00:32:27;2.70;1.00
7564;DHT22;3823;53.586;10.040;2024-03-08T00:34:53;2.70;1.00
7564;DHT22;3823;53.586;10.040;2024-03-08T00:37:20;2.70;1.00
7564;DHT22;3823;53.586;10.040;2024-03-08T00:39:50;2.70;1.00
7564;DHT22;3823;53.586;10.040;2024-03-08T00:42:16;2.60;1.00
7564;DHT22;3823;53.586;10.040;2024-03-08T00:44:42;2.50;1.00
7564;DHT22;3823;53.586;10.040;2024-03-08T00:47:08;2.50;1.00
7564;DHT22;3823;53.586;10.040;2024-03-08T00:49:33;2.40;1.00
7564;DHT22;3823;53.586;10.040;2024-03-08T00:51:59;2.40;1.00
7564;DHT22;3823;53.586;10.040;2024-03-08T00:54:24;2.40;1.00
7564;DHT22;3823;53.586;10.040;2024-03-08T00:56:50;2.40;1.00
7564;DHT22;3823;53.586;10.040;2024-03-08T00:59:16;2.40;1.00
7564;DHT22;3823;53.586;10.040;2024-03-08T01:01:41;2.30;1.00
7564;DHT22;3823;53.586;10.040;2024-03-08T01:04:07;2.30;1.00
7564;DHT22;3823;53.586;10.040;2024-03-08T01:06:34;2.40;1.00
7564;DHT22;3823;53.586;10.040;2024-03-08T01:08:59;2.40;1.00
7564;DHT22;3823;53.586;10.040;2024-03-08T01:11:25;2.30;1.00
7564;DHT22;3823;53.586;10.040;2024-03-08T01:13:50;2.30;1.00
7564;DHT22;3823;53.586;10.040;2024-03-08T01:16:16;2.30;1.00
7564;DHT22;3823;53.586;10.040;2024-03-08T01:18:46;2.30;1.00
7564;DHT22;3823;53.586;10.040;2024-03-08T01:21:12;2.20;1.00
7564;DHT22;3823;53.586;10.040;2024-03-08T01:23:38;2.20;1.00
7564;DHT22;3823;53.586;10.040;2024-03-08T01:26:04;2.10;1.00
7564;DHT22;3823;53.586;10.040;2024-03-08T01:28:30;2.10;1.00
7564;DHT22;3823;53.586;10.040;2024-03-08T01:30:55;2.20;1.00
7564;DHT22;3823;53.586;10.040;2024-03-08T01:33:25;2.20;1.00
7564;DHT22;3823;53.586;10.040;2024-03-08T01:35:51;2.20;1.00
7564;DHT22;3823;53.586;10.040;2024-03-08T01:38:18;2.10;1.00
7564;DHT22;3823;53.586;10.040;2024-03-08T01:40:44;2.10;1.00
7564;DHT22;3823;53.586;10.040;2024-03-08T01:43:24;2.10;1.00
7564;DHT22;3823;53.586;10.040;2024-03-08T01:45:51;2.10;1.00
7564;DHT22;3823;53.586;10.040;2024-03-08T01:48:17;2.10;1.00
7564;DHT22;3823;53.586;10.040;2024-03-08T01:50:45;2.00;1.00
7564;DHT22;3823;53.586;10.040;2024-03-08T01:53:11;2.00;1.00
7564;DHT22;3823;53.586;10.040;2024-03-08T01:55:40;2.00;1.00
7564;DHT22;3823;53.586;10.040;2024-03-08T01:58:06;2.00;1.00
7564;DHT22;3823;53.586;10.040;2024-03-08T02:00:35;1.90;1.00
7564;DHT22;3823;53.586;10.040;2024-03-08T02:03:02;1.90;1.00
7564;DHT22;3823;53.586;10.040;2024-03-08T02:05:28;1.90;1.00
7564;DHT22;3823;53.586;10.040;2024-03-08T02:07:54;1.90;1.00
7564;DHT22;3823;53.586;10.040;2024-03-08T02:10:20;1.90;1.00
7564;DHT22;3823;53.586;10.040;2024-03-08T02:12:47;1.90;1.00
7564;DHT22;3823;53.586;10.040;2024-03-08T02:15:13;1.90;1.00
7564;DHT22;3823;53.586;10.040;2024-03-08T02:17:40;1.90;1.00
7564;DHT22;3823;53.586;10.040;2024-03-08T02:20:06;1.90;1.00
7564;DHT22;3823;53.586;10.040;2024-03-08T02:22:34;1.80;1.00
7564;DHT22;3823;53.586;10.040;2024-03-08T02:25:00;1.80;1.00
7564;DHT22;3823;53.586;10.040;2024-03-08T02:27:27;1.80;1.00
7564;DHT22;3823;53.586;10.040;2024-03-08T02:29:55;1.90;1.00
7564;DHT22;3823;53.586;10.040;2024-03-08T02:32:25;1.80;1.00
7564;DHT22;3823;53.586;10.040;2024-03-08T02:34:50;1.90;1.00
7564;DHT22;3823;53.586;10.040;2024-03-08T02:37:17;1.80;1.00
7564;DHT22;3823;53.586;10.040;2024-03-08T02:39:43;1.80;1.00
7564;DHT22;3823;53.586;10.040;2024-03-08T02:42:08;1.70;1.00
7564;DHT22;3823;53.586;10.040;2024-03-08T02:44:34;1.70;1.00
7564;DHT22;3823;53.586;10.040;2024-03-08T02:47:00;1.70;1.00
7564;DHT22;3823;53.586;10.040;2024-03-08T02:49:26;1.80;1.00
7564;DHT22;3823;53.586;10.040;2024-03-08T02:51:52;1.80;1.00
7564;DHT22;3823;53.586;10.040;2024-03-08T02:54:19;1.90;1.00
7564;DHT22;3823;53.586;10.040;2024-03-08T02:56:45;1.90;1.00
7564;DHT22;3823;53.586;10.040;2024-03-08T02:59:14;2.00;1.00
7564;DHT22;3823;53.586;10.040;2024-03-08T03:01:43;2.00;1.00
7564;DHT22;3823;53.586;10.040;2024-03-08T03:04:09;2.00;1.00
7564;DHT22;3823;53.586;10.040;2024-03-08T03:06:34;1.90;1.00
7564;DHT22;3823;53.586;10.040;2024-03-08T03:09:01;1.90;1.00
7564;DHT22;3823;53.586;10.040;2024-03-08T03:11:26;1.80;1.00
7564;DHT22;3823;53.586;10.040;2024-03-08T03:13:52;1.80;1.00
7564;DHT22;3823;53.586;10.040;2024-03-08T03:16:20;1.80;1.00
7564;DHT22;3823;53.586;10.040;2024-03-08T03:18:46;1.80;1.00
7564;DHT22;3823;53.586;10.040;2024-03-08T03:21:13;1.80;1.00
7564;DHT22;3823;53.586;10.040;2024-03-08T03:23:39;1.70;1.00
7564;DHT22;3823;53.586;10.040;2024-03-08T03:26:05;1.70;1.00
7564;DHT22;3823;53.586;10.040;2024-03-08T03:28:32;1.70;1.00
7564;DHT22;3823;53.586;10.040;2024-03-08T03:30:59;1.70;1.00
7564;DHT22;3823;53.586;10.040;2024-03-08T03:33:25;1.70;1.00
7564;DHT22;3823;53.586;10.040;2024-03-08T03:35:50;1.50;1.00
7564;DHT22;3823;53.586;10.040;2024-03-08T03:38:17;1.50;1.00
7564;DHT22;3823;53.586;10.040;2024-03-08T03:40:45;1.50;1.00
7564;DHT22;3823;53.586;10.040;2024-03-08T03:43:11;1.50;1.00
7564;DHT22;3823;53.586;10.040;2024-03-08T03:45:38;1.40;1.00
7564;DHT22;3823;53.586;10.040;2024-03-08T03:48:05;1.30;9.80
7564;DHT22;3823;53.586;10.040;2024-03-08T03:50:35;1.30;11.80
7564;DHT22;3823;53.586;10.040;2024-03-08T03:53:00;1.30;14.40
7564;DHT22;3823;53.586;10.040;2024-03-08T03:55:27;1.30;11.70
7564;DHT22;3823;53.586;10.040;2024-03-08T03:57:52;1.30;10.80
7564;DHT22;3823;53.586;10.040;2024-03-08T04:00:18;1.30;11.50
7564;DHT22;3823;53.586;10.040;2024-03-08T04:02:44;1.30;6.20
7564;DHT22;3823;53.586;10.040;2024-03-08T04:05:11;1.30;8.50
7564;DHT22;3823;53.586;10.040;2024-03-08T04:07:37;1.30;11.00
7564;DHT22;3823;53.586;10.040;2024-03-08T04:10:04;1.40;7.40
7564;DHT22;3823;53.586;10.040;2024-03-08T04:12:32;1.30;5.30
7564;DHT22;3823;53.586;10.040;2024-03-08T04:14:57;1.20;14.80
7564;DHT22;3823;53.586;10.040;2024-03-08T04:17:23;1.20;16.70
7564;DHT22;3823;53.586;10.040;2024-03-08T04:19:52;1.20;20.40
7564;DHT22;3823;53.586;10.040;2024-03-08T04:22:17;1.10;18.80
7564;DHT22;3823;53.586;10.040;2024-03-08T04:24:46;1.20;17.90
7564;DHT22;3823;53.586;10.040;2024-03-08T04:27:13;1.10;24.20
7564;DHT22;3823;53.586;10.040;2024-03-08T04:29:39;1.10;20.60
7564;DHT22;3823;53.586;10.040;2024-03-08T04:32:06;1.10;22.50
7564;DHT22;3823;53.586;10.040;2024-03-08T04:34:32;1.00;24.90
7564;DHT22;3823;53.586;10.040;2024-03-08T04:37:00;1.10;27.70
7564;DHT22;3823;53.586;10.040;2024-03-08T04:39:26;1.00;25.40
7564;DHT22;3823;53.586;10.040;2024-03-08T04:41:57;1.00;29.30
7564;DHT22;3823;53.586;10.040;2024-03-08T04:44:24;1.00;25.80
7564;DHT22;3823;53.586;10.040;2024-03-08T04:46:52;0.90;28.20
7564;DHT22;3823;53.586;10.040;2024-03-08T04:49:17;0.90;28.80
7564;DHT22;3823;53.586;10.040;2024-03-08T04:51:43;0.90;33.10
7564;DHT22;3823;53.586;10.040;2024-03-08T04:54:10;0.90;32.70
7564;DHT22;3823;53.586;10.040;2024-03-08T04:56:36;1.00;28.10
7564;DHT22;3823;53.586;10.040;2024-03-08T04:59:01;0.90;25.50
7564;DHT22;3823;53.586;10.040;2024-03-08T05:01:27;0.90;30.00
7564;DHT22;3823;53.586;10.040;2024-03-08T05:03:52;0.90;27.80
7564;DHT22;3823;53.586;10.040;2024-03-08T05:06:20;0.90;30.20
7564;DHT22;3823;53.586;10.040;2024-03-08T05:08:46;0.90;27.80
7564;DHT22;3823;53.586;10.040;2024-03-08T05:11:11;0.80;29.60
7564;DHT22;3823;53.586;10.040;2024-03-08T05:13:40;0.80;30.60
7564;DHT22;3823;53.586;10.040;2024-03-08T05:16:05;0.80;28.30
7564;DHT22;3823;53.586;10.040;2024-03-08T05:18:33;0.80;31.50
7564;DHT22;3823;53.586;10.040;2024-03-08T05:20:59;0.90;29.90
7564;DHT22;3823;53.586;10.040;2024-03-08T05:23:24;0.80;29.40
7564;DHT22;3823;53.586;10.040;2024-03-08T05:25:50;0.80;31.80
7564;DHT22;3823;53.586;10.040;2024-03-08T05:28:16;0.80;31.60
7564;DHT22;3823;53.586;10.040;2024-03-08T05:30:41;0.80;30.90
7564;DHT22;3823;53.586;10.040;2024-03-08T05:33:07;0.80;34.10
7564;DHT22;3823;53.586;10.040;2024-03-08T05:35:36;0.80;33.10
7564;DHT22;3823;53.586;10.040;2024-03-08T05:38:01;0.80;31.30
7564;DHT22;3823;53.586;10.040;2024-03-08T05:40:27;0.90;30.90
7564;DHT22;3823;53.586;10.040;2024-03-08T05:42:57;0.90;29.40
7564;DHT22;3823;53.586;10.040;2024-03-08T05:45:24;0.90;24.80
7564;DHT22;3823;53.586;10.040;2024-03-08T05:47:50;1.00;23.10
7564;DHT22;3823;53.586;10.040;2024-03-08T05:50:17;0.90;21.70
7564;DHT22;3823;53.586;10.040;2024-03-08T05:52:43;0.90;24.80
7564;DHT22;3823;53.586;10.040;2024-03-08T05:55:09;0.90;26.40
7564;DHT22;3823;53.586;10.040;2024-03-08T05:57:35;0.90;26.80
7564;DHT22;3823;53.586;10.040;2024-03-08T06:00:05;0.90;24.20
7564;DHT22;3823;53.586;10.040;2024-03-08T06:02:31;0.90;25.50
7564;DHT22;3823;53.586;10.040;2024-03-08T06:04:56;0.90;26.30
7564;DHT22;3823;53.586;10.040;2024-03-08T06:07:22;1.00;26.30
7564;DHT22;3823;53.586;10.040;2024-03-08T06:09:48;1.00;20.50
7564;DHT22;3823;53.586;10.040;2024-03-08T06:12:14;1.10;12.70
7564;DHT22;3823;53.586;10.040;2024-03-08T06:14:44;1.30;6.30
7564;DHT22;3823;53.586;10.040;2024-03-08T06:17:10;1.30;1.00
7564;DHT22;3823;53.586;10.040;2024-03-08T06:19:36;1.40;1.00
7564;DHT22;3823;53.586;10.040;2024-03-08T06:22:02;1.40;1.00
7564;DHT22;3823;53.586;10.040;2024-03-08T06:24:33;1.40;1.00
7564;DHT22;3823;53.586;10.040;2024-03-08T06:27:02;1.50;1.00
7564;DHT22;3823;53.586;10.040;2024-03-08T06:29:27;1.40;1.00
7564;DHT22;3823;53.586;10.040;2024-03-08T06:31:53;1.60;1.00
7564;DHT22;3823;53.586;10.040;2024-03-08T06:34:19;1.60;1.00
7564;DHT22;3823;53.586;10.040;2024-03-08T06:36:44;1.60;1.00
7564;DHT22;3823;53.586;10.040;2024-03-08T06:39:10;1.80;1.00
7564;DHT22;3823;53.586;10.040;2024-03-08T06:41:36;1.90;1.00
7564;DHT22;3823;53.586;10.040;2024-03-08T06:44:02;2.00;1.00
7564;DHT22;3823;53.586;10.040;2024-03-08T06:46:28;2.10;1.00
7564;DHT22;3823;53.586;10.040;2024-03-08T06:48:54;2.20;1.00
7564;DHT22;3823;53.586;10.040;2024-03-08T06:51:20;2.20;1.00
7564;DHT22;3823;53.586;10.040;2024-03-08T06:53:45;2.20;1.00
7564;DHT22;3823;53.586;10.040;2024-03-08T06:56:11;2.30;1.00
7564;DHT22;3823;53.586;10.040;2024-03-08T06:58:36;2.40;1.00
7564;DHT22;3823;53.586;10.040;2024-03-08T07:01:03;2.60;1.00
7564;DHT22;3823;53.586;10.040;2024-03-08T07:03:32;2.60;1.00
7564;DHT22;3823;53.586;10.040;2024-03-08T07:05:58;2.60;1.00
7564;DHT22;3823;53.586;10.040;2024-03-08T07:08:24;2.70;1.00
7564;DHT22;3823;53.586;10.040;2024-03-08T07:10:50;2.70;1.00
7564;DHT22;3823;53.586;10.040;2024-03-08T07:13:15;3.00;1.00
7564;DHT22;3823;53.586;10.040;2024-03-08T07:15:43;3.10;1.00
7564;DHT22;3823;53.586;10.040;2024-03-08T07:18:08;3.20;1.00
7564;DHT22;3823;53.586;10.040;2024-03-08T07:20:34;3.20;1.00
7564;DHT22;3823;53.586;10.040;2024-03-08T07:23:02;3.40;1.00
7564;DHT22;3823;53.586;10.040;2024-03-08T07:25:28;3.60;99.90
7564;DHT22;3823;53.586;10.040;2024-03-08T07:27:55;3.90;99.90
7564;DHT22;3823;53.586;10.040;2024-03-08T07:30:22;4.20;99.90
7564;DHT22;3823;53.586;10.040;2024-03-08T07:33:06;4.20;99.90
7564;DHT22;3823;53.586;10.040;2024-03-08T07:35:35;4.40;99.90
7564;DHT22;3823;53.586;10.040;2024-03-08T07:38:08;4.30;99.90
7564;DHT22;3823;53.586;10.040;2024-03-08T07:40:38;4.40;99.90
7564;DHT22;3823;53.586;10.040;2024-03-08T07:43:07;4.40;99.90
7564;DHT22;3823;53.586;10.040;2024-03-08T07:45:33;4.50;99.90
7564;DHT22;3823;53.586;10.040;2024-03-08T07:47:58;4.60;99.90
7564;DHT22;3823;53.586;10.040;2024-03-08T07:50:24;4.80;99.90
7564;DHT22;3823;53.586;10.040;2024-03-08T07:52:50;4.90;45.70
7564;DHT22;3823;53.586;10.040;2024-03-08T07:55:15;4.90;85.00
7564;DHT22;3823;53.586;10.040;2024-03-08T07:57:41;5.10;32.40
7564;DHT22;3823;53.586;10.040;2024-03-08T08:00:08;5.00;20.20
7564;DHT22;3823;53.586;10.040;2024-03-08T08:02:34;5.20;11.50
7564;DHT22;3823;53.586;10.040;2024-03-08T08:05:01;5.30;2.40
7564;DHT22;3823;53.586;10.040;2024-03-08T08:07:26;5.20;1.00
7564;DHT22;3823;53.586;10.040;2024-03-08T08:09:53;4.90;59.30
7564;DHT22;3823;53.586;10.040;2024-03-08T08:12:18;5.20;27.90
7564;DHT22;3823;53.586;10.040;2024-03-08T08:14:44;5.20;1.00
7564;DHT22;3823;53.586;10.040;2024-03-08T08:17:10;5.10;46.20
7564;DHT22;3823;53.586;10.040;2024-03-08T08:19:35;5.10;43.00
7564;DHT22;3823;53.586;10.040;2024-03-08T08:22:01;5.20;1.00
7564;DHT22;3823;53.586;10.040;2024-03-08T08:24:30;5.10;1.00
7564;DHT22;3823;53.586;10.040;2024-03-08T08:26:55;5.30;35.30
7564;DHT22;3823;53.586;10.040;2024-03-08T08:29:21;5.80;1.00
7564;DHT22;3823;53.586;10.040;2024-03-08T08:31:48;5.60;1.00
7564;DHT22;3823;53.586;10.040;2024-03-08T08:34:15;5.60;1.00
7564;DHT22;3823;53.586;10.040;2024-03-08T08:36:42;5.60;1.00
7564;DHT22;3823;53.586;10.040;2024-03-08T08:39:07;5.80;1.00
7564;DHT22;3823;53.586;10.040;2024-03-08T08:41:39;5.90;1.00
7564;DHT22;3823;53.586;10.040;2024-03-08T08:44:04;6.30;1.00
7564;DHT22;3823;53.586;10.040;2024-03-08T08:46:35;6.40;1.00
7564;DHT22;3823;53.586;10.040;2024-03-08T08:49:04;6.40;1.00
7564;DHT22;3823;53.586;10.040;2024-03-08T08:51:30;6.70;1.00
7564;DHT22;3823;53.586;10.040;2024-03-08T08:53:56;6.70;1.00
7564;DHT22;3823;53.586;10.040;2024-03-08T08:56:22;6.60;1.00
7564;DHT22;3823;53.586;10.040;2024-03-08T08:58:47;6.90;1.00
7564;DHT22;3823;53.586;10.040;2024-03-08T09:01:14;7.00;1.00
7564;DHT22;3823;53.586;10.040;2024-03-08T09:03:40;6.70;1.00
7564;DHT22;3823;53.586;10.040;2024-03-08T09:06:07;6.70;1.00
7564;DHT22;3823;53.586;10.040;2024-03-08T09:08:36;6.80;1.00
7564;DHT22;3823;53.586;10.040;2024-03-08T09:11:02;7.10;1.00
7564;DHT22;3823;53.586;10.040;2024-03-08T09:13:27;7.00;1.00
7564;DHT22;3823;53.586;10.040;2024-03-08T09:15:53;6.70;1.00
7564;DHT22;3823;53.586;10.040;2024-03-08T09:18:19;6.60;1.00
7564;DHT22;3823;53.586;10.040;2024-03-08T09:20:45;6.60;1.00
7564;DHT22;3823;53.586;10.040;2024-03-08T09:23:10;7.00;1.00
7564;DHT22;3823;53.586;10.040;2024-03-08T09:25:36;7.00;1.00
7564;DHT22;3823;53.586;10.040;2024-03-08T09:28:03;6.90;1.00
7564;DHT22;3823;53.586;10.040;2024-03-08T09:30:31;6.80;1.00
7564;DHT22;3823;53.586;10.040;2024-03-08T09:32:56;7.10;1.00
7564;DHT22;3823;53.586;10.040;2024-03-08T09:35:22;7.60;1.00
7564;DHT22;3823;53.586;10.040;2024-03-08T09:37:47;7.40;1.00
7564;DHT22;3823;53.586;10.040;2024-03-08T09:40:16;7.40;1.00
7564;DHT22;3823;53.586;10.040;2024-03-08T09:42:45;7.70;1.00
7564;DHT22;3823;53.586;10.040;2024-03-08T09:45:12;7.80;1.00
7564;DHT22;3823;53.586;10.040;2024-03-08T09:47:39;7.90;1.00
7564;DHT22;3823;53.586;10.040;2024-03-08T09:50:07;7.90;1.00
7564;DHT22;3823;53.586;10.040;2024-03-08T09:52:41;7.70;1.00
7564;DHT22;3823;53.586;10.040;2024-03-08T09:55:10;7.60;1.00
7564;DHT22;3823;53.586;10.040;2024-03-08T09:57:40;7.70;1.00
7564;DHT22;3823;53.586;10.040;2024-03-08T10:00:06;7.50;1.00
7564;DHT22;3823;53.586;10.040;2024-03-08T10:02:50;7.50;1.00
7564;DHT22;3823;53.586;10.040;2024-03-08T10:05:18;7.90;1.00
7564;DHT22;3823;53.586;10.040;2024-03-08T10:07:44;7.90;1.00
7564;DHT22;3823;53.586;10.040;2024-03-08T10:10:09;7.70;1.00
7564;DHT22;3823;53.586;10.040;2024-03-08T10:12:38;7.30;1.00
7564;DHT22;3823;53.586;10.040;2024-03-08T10:15:06;7.20;1.00
7564;DHT22;3823;53.586;10.040;2024-03-08T10:17:34;7.40;1.00
7564;DHT22;3823;53.586;10.040;2024-03-08T10:20:00;7.80;1.00
7564;DHT22;3823;53.586;10.040;2024-03-08T10:22:26;7.50;1.00
7564;DHT22;3823;53.586;10.040;2024-03-08T10:24:52;7.70;1.00
7564;DHT22;3823;53.586;10.040;2024-03-08T10:27:18;7.90;1.00
7564;DHT22;3823;53.586;10.040;2024-03-08T10:29:47;8.50;1.00
7564;DHT22;3823;53.586;10.040;2024-03-08T10:32:13;8.50;1.00
7564;DHT22;3823;53.586;10.040;2024-03-08T10:34:39;8.50;1.00
7564;DHT22;3823;53.586;10.040;2024-03-08T10:37:05;8.50;1.00
7564;DHT22;3823;53.586;10.040;2024-03-08T10:39:36;8.60;1.00
7564;DHT22;3823;53.586;10.040;2024-03-08T10:42:04;7.90;1.00
7564;DHT22;3823;53.586;10.040;2024-03-08T10:47:26;7.90;1.00
7564;DHT22;3823;53.586;10.040;2024-03-08T10:49:59;8.10;1.00
7564;DHT22;3823;53.586;10.040;2024-03-08T10:52:29;8.20;1.00
7564;DHT22;3823;53.586;10.040;2024-03-08T10:54:56;8.30;1.00
7564;DHT22;3823;53.586;10.040;2024-03-08T10:57:22;8.30;1.00
7564;DHT22;3823;53.586;10.040;2024-03-08T10:59:49;7.90;1.00
7564;DHT22;3823;53.586;10.040;2024-03-08T11:02:17;7.70;1.00
7564;DHT22;3823;53.586;10.040;2024-03-08T11:04:47;8.00;1.00
7564;DHT22;3823;53.586;10.040;2024-03-08T11:07:14;7.90;1.00
7564;DHT22;3823;53.586;10.040;2024-03-08T11:09:42;7.80;1.00
7564;DHT22;3823;53.586;10.040;2024-03-08T11:12:27;7.90;1.00
7564;DHT22;3823;53.586;10.040;2024-03-08T11:15:16;7.90;1.00
7564;DHT22;3823;53.586;10.040;2024-03-08T11:17:48;8.00;1.00
7564;DHT22;3823;53.586;10.040;2024-03-08T11:20:19;8.40;1.00
7564;DHT22;3823;53.586;10.040;2024-03-08T11:25:38;8.30;1.00
7564;DHT22;3823;53.586;10.040;2024-03-08T11:28:17;8.30;1.00
7564;DHT22;3823;53.586;10.040;2024-03-08T11:33:29;8.60;1.00
7564;DHT22;3823;53.586;10.040;2024-03-08T11:36:10;8.70;1.00
7564;DHT22;3823;53.586;10.040;2024-03-08T11:38:45;8.70;1.00
7564;DHT22;3823;53.586;10.040;2024-03-08T11:41:18;8.90;1.00
7564;DHT22;3823;53.586;10.040;2024-03-08T11:43:45;8.90;1.00
7564;DHT22;3823;53.586;10.040;2024-03-08T11:46:12;8.90;1.00
7564;DHT22;3823;53.586;10.040;2024-03-08T11:48:42;8.80;1.00
7564;DHT22;3823;53.586;10.040;2024-03-08T11:51:08;8.70;1.00
7564;DHT22;3823;53.586;10.040;2024-03-08T11:53:35;8.90;1.00
7564;DHT22;3823;53.586;10.040;2024-03-08T11:56:09;9.10;1.00
7564;DHT22;3823;53.586;10.040;2024-03-08T11:58:35;9.00;1.00
7564;DHT22;3823;53.586;10.040;2024-03-08T12:01:08;8.90;1.00
7564;DHT22;3823;53.586;10.040;2024-03-08T12:03:42;8.50;1.00
7564;DHT22;3823;53.586;10.040;2024-03-08T12:06:09;8.50;1.00
7564;DHT22;3823;53.586;10.040;2024-03-08T12:08:38;8.50;1.00
7564;DHT22;3823;53.586;10.040;2024-03-08T12:11:04;8.60;1.00
7564;DHT22;3823;53.586;10.040;2024-03-08T12:13:34;8.80;1.00
7564;DHT22;3823;53.586;10.040;2024-03-08T12:16:03;8.80;1.00
7564;DHT22;3823;53.586;10.040;2024-03-08T12:18:33;9.20;1.00
7564;DHT22;3823;53.586;10.040;2024-03-08T12:21:07;9.20;1.00
7564;DHT22;3823;53.586;10.040;2024-03-08T12:23:36;9.00;1.00
7564;DHT22;3823;53.586;10.040;2024-03-08T12:26:18;8.90;1.00
7564;DHT22;3823;53.586;10.040;2024-03-08T12:28:48;8.90;1.00
7564;DHT22;3823;53.586;10.040;2024-03-08T12:31:16;9.00;1.00
7564;DHT22;3823;53.586;10.040;2024-03-08T12:33:52;9.00;1.00
7564;DHT22;3823;53.586;10.040;2024-03-08T12:36:19;9.00;1.00
7564;DHT22;3823;53.586;10.040;2024-03-08T12:38:46;9.00;1.00
7564;DHT22;3823;53.586;10.040;2024-03-08T12:41:17;9.00;1.00
7564;DHT22;3823;53.586;10.040;2024-03-08T12:43:44;9.40;1.00
7564;DHT22;3823;53.586;10.040;2024-03-08T12:46:19;9.30;1.00
7564;DHT22;3823;53.586;10.040;2024-03-08T12:48:51;9.00;1.00
7564;DHT22;3823;53.586;10.040;2024-03-08T12:51:19;8.90;1.00
7564;DHT22;3823;53.586;10.040;2024-03-08T12:53:46;8.70;1.00
7564;DHT22;3823;53.586;10.040;2024-03-08T12:56:12;9.00;1.00
7564;DHT22;3823;53.586;10.040;2024-03-08T12:58:38;9.10;1.00
7564;DHT22;3823;53.586;10.040;2024-03-08T13:01:04;9.10;1.00
7564;DHT22;3823;53.586;10.040;2024-03-08T13:03:35;9.10;1.00
7564;DHT22;3823;53.586;10.040;2024-03-08T13:06:05;9.10;1.00
7564;DHT22;3823;53.586;10.040;2024-03-08T13:08:39;9.10;1.00
7564;DHT22;3823;53.586;10.040;2024-03-08T13:11:08;9.20;1.00
7564;DHT22;3823;53.586;10.040;2024-03-08T13:13:36;9.30;1.00
7564;DHT22;3823;53.586;10.040;2024-03-08T13:16:03;9.40;1.00
7564;DHT22;3823;53.586;10.040;2024-03-08T13:18:33;9.40;1.00
7564;DHT22;3823;53.586;10.040;2024-03-08T13:20:59;9.30;1.00
7564;DHT22;3823;53.586;10.040;2024-03-08T13:23:24;9.30;1.00
7564;DHT22;3823;53.586;10.040;2024-03-08T13:25:50;9.40;1.00
7564;DHT22;3823;53.586;10.040;2024-03-08T13:28:16;9.50;1.00
7564;DHT22;3823;53.586;10.040;2024-03-08T13:30:42;9.50;1.00
7564;DHT22;3823;53.586;10.040;2024-03-08T13:33:09;9.70;1.00
7564;DHT22;3823;53.586;10.040;2024-03-08T13:35:35;9.50;1.00
7564;DHT22;3823;53.586;10.040;2024-03-08T13:38:00;9.50;1.00
7564;DHT22;3823;53.586;10.040;2024-03-08T13:40:30;9.30;1.00
7564;DHT22;3823;53.586;10.040;2024-03-08T13:42:56;9.20;1.00
7564;DHT22;3823;53.586;10.040;2024-03-08T13:45:22;9.30;1.00
7564;DHT22;3823;53.586;10.040;2024-03-08T13:47:50;9.30;1.00
7564;DHT22;3823;53.586;10.040;2024-03-08T13:50:19;9.30;1.00
7564;DHT22;3823;53.586;10.040;2024-03-08T13:52:47;9.30;1.00
7564;DHT22;3823;53.586;10.040;2024-03-08T13:55:17;9.40;1.00
7564;DHT22;3823;53.586;10.040;2024-03-08T13:57:43;9.40;1.00
7564;DHT22;3823;53.586;10.040;2024-03-08T14:00:11;9.40;1.00
7564;DHT22;3823;53.586;10.040;2024-03-08T14:02:36;9.40;1.00
7564;DHT22;3823;53.586;10.040;2024-03-08T14:05:02;9.60;1.00
7564;DHT22;3823;53.586;10.040;2024-03-08T14:07:28;9.50;1.00
7564;DHT22;3823;53.586;10.040;2024-03-08T14:09:58;9.50;1.00
7564;DHT22;3823;53.586;10.040;2024-03-08T14:12:24;9.60;1.00
7564;DHT22;3823;53.586;10.040;2024-03-08T14:14:54;9.60;1.00
7564;DHT22;3823;53.586;10.040;2024-03-08T14:17:20;9.50;1.00
7564;DHT22;3823;53.586;10.040;2024-03-08T14:19:46;9.50;1.00
7564;DHT22;3823;53.586;10.040;2024-03-08T14:22:12;9.60;1.00
7564;DHT22;3823;53.586;10.040;2024-03-08T14:24:40;9.70;1.00
7564;DHT22;3823;53.586;10.040;2024-03-08T14:27:08;9.70;1.00
7564;DHT22;3823;53.586;10.040;2024-03-08T14:29:35;9.60;1.00
7564;DHT22;3823;53.586;10.040;2024-03-08T14:32:01;9.50;1.00
7564;DHT22;3823;53.586;10.040;2024-03-08T14:34:28;9.60;1.00
7564;DHT22;3823;53.586;10.040;2024-03-08T14:36:56;9.70;1.00
7564;DHT22;3823;53.586;10.040;2024-03-08T14:39:21;9.60;1.00
7564;DHT22;3823;53.586;10.040;2024-03-08T14:41:52;9.60;1.00
7564;DHT22;3823;53.586;10.040;2024-03-08T14:44:22;9.50;1.00
7564;DHT22;3823;53.586;10.040;2024-03-08T14:46:54;9.60;1.00
7564;DHT22;3823;53.586;10.040;2024-03-08T14:49:20;9.70;1.00
7564;DHT22;3823;53.586;10.040;2024-03-08T14:51:46;9.50;1.00
7564;DHT22;3823;53.586;10.040;2024-03-08T14:54:12;9.50;1.00
7564;DHT22;3823;53.586;10.040;2024-03-08T14:56:38;9.50;1.00
7564;DHT22;3823;53.586;10.040;2024-03-08T14:59:07;9.50;1.00
7564;DHT22;3823;53.586;10.040;2024-03-08T15:01:32;9.70;1.00
7564;DHT22;3823;53.586;10.040;2024-03-08T15:04:04;9.60;1.00
7564;DHT22;3823;53.586;10.040;2024-03-08T15:06:39;9.60;1.00
7564;DHT22;3823;53.586;10.040;2024-03-08T15:09:05;9.50;1.00
7564;DHT22;3823;53.586;10.040;2024-03-08T15:11:40;9.40;1.00
7564;DHT22;3823;53.586;10.040;2024-03-08T15:14:06;9.50;1.00
7564;DHT22;3823;53.586;10.040;2024-03-08T15:16:39;9.50;1.00
7564;DHT22;3823;53.586;10.040;2024-03-08T15:19:08;9.50;1.00
7564;DHT22;3823;53.586;10.040;2024-03-08T15:21:34;9.40;1.00
7564;DHT22;3823;53.586;10.040;2024-03-08T15:24:01;9.50;1.00
7564;DHT22;3823;53.586;10.040;2024-03-08T15:26:28;9.50;1.00
7564;DHT22;3823;53.586;10.040;2024-03-08T15:28:56;9.40;1.00
7564;DHT22;3823;53.586;10.040;2024-03-08T15:31:22;9.50;1.00
7564;DHT22;3823;53.586;10.040;2024-03-08T15:33:50;9.40;1.00
7564;DHT22;3823;53.586;10.040;2024-03-08T15:36:27;9.40;1.00
7564;DHT22;3823;53.586;10.040;2024-03-08T15:38:59;9.40;1.00
7564;DHT22;3823;53.586;10.040;2024-03-08T15:41:25;9.40;1.00
7564;DHT22;3823;53.586;10.040;2024-03-08T15:43:52;9.40;1.00
7564;DHT22;3823;53.586;10.040;2024-03-08T15:46:20;9.30;1.00
7564;DHT22;3823;53.586;10.040;2024-03-08T15:48:48;9.30;1.00
7564;DHT22;3823;53.586;10.040;2024-03-08T15:51:14;9.30;1.00
7564;DHT22;3823;53.586;10.040;2024-03-08T15:53:43;9.30;1.00
7564;DHT22;3823;53.586;10.040;2024-03-08T15:56:14;9.30;1.00
7564;DHT22;3823;53.586;10.040;2024-03-08T15:58:41;9.10;1.00
7564;DHT22;3823;53.586;10.040;2024-03-08T16:01:06;9.10;1.00
7564;DHT22;3823;53.586;10.040;2024-03-08T16:03:32;9.20;1.00
7564;DHT22;3823;53.586;10.040;2024-03-08T16:05:58;9.20;1.00
7564;DHT22;3823;53.586;10.040;2024-03-08T16:08:24;9.10;1.00
7564;DHT22;3823;53.586;10.040;2024-03-08T16:10:52;9.00;1.00
7564;DHT22;3823;53.586;10.040;2024-03-08T16:13:23;8.90;1.00
7564;DHT22;3823;53.586;10.040;2024-03-08T16:15:51;9.10;1.00
7564;DHT22;3823;53.586;10.040;2024-03-08T16:18:17;9.00;1.00
7564;DHT22;3823;53.586;10.040;2024-03-08T16:20:50;8.90;1.00
7564;DHT22;3823;53.586;10.040;2024-03-08T16:23:16;8.90;1.00